sensor_id;sensor_type;location;lat;lon;timestamp;P1;durP1;ratioP1;P2;durP2;ratioP2
12511;SDS011;6321;53.798;10.382;2023-04-06T00:00:48;10.17;;;6.47;;
12511;SDS011;6321;53.798;10.382;2023-04-06T00:03:14;7.30;;;6.33;;
12511;SDS011;6321;53.798;10.382;2023-04-06T00:05:40;10.53;;;6.43;;
12511;SDS011;6321;53.798;10.382;2023-04-06T00:08:06;9.13;;;6.13;;
12511;SDS011;6321;53.798;10.382;2023-04-06T00:10:32;8.90;;;6.43;;
12511;SDS011;6321;53.798;10.382;2023-04-06T00:12:58;8.57;;;6.40;;
12511;SDS011;6321;53.798;10.382;2023-04-06T00:15:24;8.83;;;5.70;;
12511;SDS011;6321;53.798;10.382;2023-04-06T00:17:50;8.47;;;6.07;;
12511;SDS011;6321;53.798;10.382;2023-04-06T00:20:16;7.40;;;5.90;;
12511;SDS011;6321;53.798;10.382;2023-04-06T00:22:43;11.30;;;5.60;;
12511;SDS011;6321;53.798;10.382;2023-04-06T00:25:09;8.00;;;5.87;;
12511;SDS011;6321;53.798;10.382;2023-04-06T00:27:35;8.30;;;5.47;;
12511;SDS011;6321;53.798;10.382;2023-04-06T00:30:02;12.27;;;5.90;;
12511;SDS011;6321;53.798;10.382;2023-04-06T00:32:29;11.37;;;5.80;;
12511;SDS011;6321;53.798;10.382;2023-04-06T00:34:55;7.83;;;5.87;;
12511;SDS011;6321;53.798;10.382;2023-04-06T00:37:21;6.77;;;5.70;;
12511;SDS011;6321;53.798;10.382;2023-04-06T00:39:47;11.63;;;6.13;;
12511;SDS011;6321;53.798;10.382;2023-04-06T00:42:14;8.50;;;5.43;;
12511;SDS011;6321;53.798;10.382;2023-04-06T00:44:40;7.70;;;6.63;;
12511;SDS011;6321;53.798;10.382;2023-04-06T00:47:07;6.80;;;6.10;;
12511;SDS011;6321;53.798;10.382;2023-04-06T00:49:33;7.23;;;5.23;;
12511;SDS011;6321;53.798;10.382;2023-04-06T00:51:59;8.37;;;6.00;;
12511;SDS011;6321;53.798;10.382;2023-04-06T00:54:26;9.33;;;6.53;;
12511;SDS011;6321;53.798;10.382;2023-04-06T00:56:52;11.77;;;6.30;;
12511;SDS011;6321;53.798;10.382;2023-04-06T00:59:18;8.70;;;6.13;;
12511;SDS011;6321;53.798;10.382;2023-04-06T01:01:44;7.93;;;5.70;;
12511;SDS011;6321;53.798;10.382;2023-04-06T01:04:10;9.87;;;6.53;;
12511;SDS011;6321;53.798;10.382;2023-04-06T01:06:36;10.43;;;6.70;;
12511;SDS011;6321;53.798;10.382;2023-04-06T01:09:02;8.50;;;6.70;;
12511;SDS011;6321;53.798;10.382;2023-04-06T01:11:28;12.00;;;7.27;;
12511;SDS011;6321;53.798;10.382;2023-04-06T01:13:55;9.30;;;7.33;;
12511;SDS011;6321;53.798;10.382;2023-04-06T01:16:20;9.13;;;7.33;;
12511;SDS011;6321;53.798;10.382;2023-04-06T01:18:46;10.43;;;6.93;;
12511;SDS011;6321;53.798;10.382;2023-04-06T01:21:12;11.40;;;7.63;;
12511;SDS011;6321;53.798;10.382;2023-04-06T01:23:46;10.23;;;7.70;;
12511;SDS011;6321;53.798;10.382;2023-04-06T01:26:13;10.10;;;7.13;;
12511;SDS011;6321;53.798;10.382;2023-04-06T01:28:39;9.97;;;7.13;;
12511;SDS011;6321;53.798;10.382;2023-04-06T01:31:08;9.83;;;6.73;;
12511;SDS011;6321;53.798;10.382;2023-04-06T01:33:34;9.23;;;6.93;;
12511;SDS011;6321;53.798;10.382;2023-04-06T01:36:00;9.70;;;6.87;;
12511;SDS011;6321;53.798;10.382;2023-04-06T01:38:26;10.77;;;6.97;;
12511;SDS011;6321;53.798;10.382;2023-04-06T01:40:53;10.57;;;6.73;;
12511;SDS011;6321;53.798;10.382;2023-04-06T01:43:19;9.03;;;7.27;;
12511;SDS011;6321;53.798;10.382;2023-04-06T01:45:45;10.03;;;6.93;;
12511;SDS011;6321;53.798;10.382;2023-04-06T01:48:11;10.63;;;7.53;;
12511;SDS011;6321;53.798;10.382;2023-04-06T01:50:37;12.17;;;7.27;;
12511;SDS011;6321;53.798;10.382;2023-04-06T01:53:03;14.40;;;7.93;;
12511;SDS011;6321;53.798;10.382;2023-04-06T01:55:29;9.90;;;7.03;;
12511;SDS011;6321;53.798;10.382;2023-04-06T01:57:55;11.20;;;7.07;;
12511;SDS011;6321;53.798;10.382;2023-04-06T02:00:21;12.53;;;7.67;;
12511;SDS011;6321;53.798;10.382;2023-04-06T02:02:47;10.87;;;7.70;;
12511;SDS011;6321;53.798;10.382;2023-04-06T02:05:13;11.83;;;7.97;;
12511;SDS011;6321;53.798;10.382;2023-04-06T02:07:39;12.27;;;8.30;;
12511;SDS011;6321;53.798;10.382;2023-04-06T02:10:10;12.23;;;7.77;;
12511;SDS011;6321;53.798;10.382;2023-04-06T02:12:36;13.40;;;9.03;;
12511;SDS011;6321;53.798;10.382;2023-04-06T02:15:02;14.07;;;9.70;;
12511;SDS011;6321;53.798;10.382;2023-04-06T02:17:28;15.23;;;9.17;;
12511;SDS011;6321;53.798;10.382;2023-04-06T02:19:55;14.57;;;9.67;;
12511;SDS011;6321;53.798;10.382;2023-04-06T02:22:21;14.63;;;9.30;;
12511;SDS011;6321;53.798;10.382;2023-04-06T02:24:47;16.97;;;10.10;;
12511;SDS011;6321;53.798;10.382;2023-04-06T02:27:13;16.83;;;10.63;;
12511;SDS011;6321;53.798;10.382;2023-04-06T02:29:39;15.00;;;9.10;;
12511;SDS011;6321;53.798;10.382;2023-04-06T02:32:05;14.93;;;8.87;;
12511;SDS011;6321;53.798;10.382;2023-04-06T02:34:31;17.23;;;9.60;;
12511;SDS011;6321;53.798;10.382;2023-04-06T02:36:57;18.00;;;10.20;;
12511;SDS011;6321;53.798;10.382;2023-04-06T02:39:23;15.50;;;9.93;;
12511;SDS011;6321;53.798;10.382;2023-04-06T02:41:49;13.73;;;8.97;;
12511;SDS011;6321;53.798;10.382;2023-04-06T02:44:15;13.80;;;9.40;;
12511;SDS011;6321;53.798;10.382;2023-04-06T02:46:41;15.13;;;9.90;;
12511;SDS011;6321;53.798;10.382;2023-04-06T02:49:07;16.60;;;10.63;;
12511;SDS011;6321;53.798;10.382;2023-04-06T02:51:33;16.17;;;11.00;;
12511;SDS011;6321;53.798;10.382;2023-04-06T02:53:59;17.37;;;11.10;;
12511;SDS011;6321;53.798;10.382;2023-04-06T02:56:25;14.83;;;10.50;;
12511;SDS011;6321;53.798;10.382;2023-04-06T02:58:51;18.70;;;12.13;;
12511;SDS011;6321;53.798;10.382;2023-04-06T03:01:17;16.13;;;11.67;;
12511;SDS011;6321;53.798;10.382;2023-04-06T03:03:43;20.57;;;11.70;;
12511;SDS011;6321;53.798;10.382;2023-04-06T03:06:09;18.37;;;11.83;;
12511;SDS011;6321;53.798;10.382;2023-04-06T03:08:35;17.40;;;11.67;;
12511;SDS011;6321;53.798;10.382;2023-04-06T03:11:01;17.60;;;12.40;;
12511;SDS011;6321;53.798;10.382;2023-04-06T03:13:27;20.30;;;12.43;;
12511;SDS011;6321;53.798;10.382;2023-04-06T03:15:53;19.17;;;12.47;;
12511;SDS011;6321;53.798;10.382;2023-04-06T03:18:21;21.53;;;13.03;;
12511;SDS011;6321;53.798;10.382;2023-04-06T03:20:49;20.90;;;12.87;;
12511;SDS011;6321;53.798;10.382;2023-04-06T03:23:15;21.23;;;13.07;;
12511;SDS011;6321;53.798;10.382;2023-04-06T03:25:41;21.60;;;13.83;;
12511;SDS011;6321;53.798;10.382;2023-04-06T03:28:07;20.27;;;13.03;;
12511;SDS011;6321;53.798;10.382;2023-04-06T03:30:33;20.87;;;13.53;;
12511;SDS011;6321;53.798;10.382;2023-04-06T03:32:59;22.77;;;13.40;;
12511;SDS011;6321;53.798;10.382;2023-04-06T03:35:25;19.53;;;13.33;;
12511;SDS011;6321;53.798;10.382;2023-04-06T03:37:51;21.77;;;13.33;;
12511;SDS011;6321;53.798;10.382;2023-04-06T03:40:18;23.30;;;14.50;;
12511;SDS011;6321;53.798;10.382;2023-04-06T03:42:43;21.90;;;13.67;;
12511;SDS011;6321;53.798;10.382;2023-04-06T03:45:09;22.93;;;15.07;;
12511;SDS011;6321;53.798;10.382;2023-04-06T03:47:37;22.30;;;14.83;;
12511;SDS011;6321;53.798;10.382;2023-04-06T03:50:03;22.37;;;15.50;;
12511;SDS011;6321;53.798;10.382;2023-04-06T03:52:29;28.70;;;15.20;;
12511;SDS011;6321;53.798;10.382;2023-04-06T03:54:55;22.37;;;15.73;;
12511;SDS011;6321;53.798;10.382;2023-04-06T03:57:21;26.57;;;15.10;;
12511;SDS011;6321;53.798;10.382;2023-04-06T03:59:47;25.67;;;15.07;;
12511;SDS011;6321;53.798;10.382;2023-04-06T04:02:13;23.60;;;13.83;;
12511;SDS011;6321;53.798;10.382;2023-04-06T04:04:39;23.97;;;14.27;;
12511;SDS011;6321;53.798;10.382;2023-04-06T04:07:05;23.53;;;14.60;;
12511;SDS011;6321;53.798;10.382;2023-04-06T04:09:31;20.57;;;13.60;;
12511;SDS011;6321;53.798;10.382;2023-04-06T04:11:57;20.47;;;13.97;;
12511;SDS011;6321;53.798;10.382;2023-04-06T04:14:23;22.03;;;14.37;;
12511;SDS011;6321;53.798;10.382;2023-04-06T04:16:50;23.17;;;15.10;;
12511;SDS011;6321;53.798;10.382;2023-04-06T04:19:16;22.53;;;14.43;;
12511;SDS011;6321;53.798;10.382;2023-04-06T04:21:42;21.67;;;14.33;;
12511;SDS011;6321;53.798;10.382;2023-04-06T04:24:12;21.23;;;13.80;;
12511;SDS011;6321;53.798;10.382;2023-04-06T04:26:38;23.07;;;13.57;;
12511;SDS011;6321;53.798;10.382;2023-04-06T04:29:04;25.37;;;14.13;;
12511;SDS011;6321;53.798;10.382;2023-04-06T04:31:30;25.83;;;15.77;;
12511;SDS011;6321;53.798;10.382;2023-04-06T04:33:57;21.73;;;13.67;;
12511;SDS011;6321;53.798;10.382;2023-04-06T04:36:23;21.87;;;15.00;;
12511;SDS011;6321;53.798;10.382;2023-04-06T04:38:50;21.50;;;14.60;;
12511;SDS011;6321;53.798;10.382;2023-04-06T04:41:16;23.17;;;13.90;;
12511;SDS011;6321;53.798;10.382;2023-04-06T04:43:42;25.17;;;14.70;;
12511;SDS011;6321;53.798;10.382;2023-04-06T04:46:08;25.43;;;14.53;;
12511;SDS011;6321;53.798;10.382;2023-04-06T04:48:34;25.40;;;14.77;;
12511;SDS011;6321;53.798;10.382;2023-04-06T04:51:00;27.20;;;15.27;;
12511;SDS011;6321;53.798;10.382;2023-04-06T04:53:26;22.00;;;14.27;;
12511;SDS011;6321;53.798;10.382;2023-04-06T04:55:52;20.67;;;13.40;;
12511;SDS011;6321;53.798;10.382;2023-04-06T04:58:18;20.53;;;12.17;;
12511;SDS011;6321;53.798;10.382;2023-04-06T05:00:45;16.63;;;12.73;;
12511;SDS011;6321;53.798;10.382;2023-04-06T05:03:13;21.37;;;14.30;;
12511;SDS011;6321;53.798;10.382;2023-04-06T05:05:40;20.43;;;12.60;;
12511;SDS011;6321;53.798;10.382;2023-04-06T05:08:05;20.73;;;13.40;;
12511;SDS011;6321;53.798;10.382;2023-04-06T05:10:31;23.83;;;15.10;;
12511;SDS011;6321;53.798;10.382;2023-04-06T05:12:58;23.27;;;15.13;;
12511;SDS011;6321;53.798;10.382;2023-04-06T05:15:24;24.73;;;14.63;;
12511;SDS011;6321;53.798;10.382;2023-04-06T05:17:50;27.93;;;16.43;;
12511;SDS011;6321;53.798;10.382;2023-04-06T05:20:16;27.43;;;17.13;;
12511;SDS011;6321;53.798;10.382;2023-04-06T05:22:42;26.40;;;16.63;;
12511;SDS011;6321;53.798;10.382;2023-04-06T05:25:08;27.73;;;16.70;;
12511;SDS011;6321;53.798;10.382;2023-04-06T05:27:34;29.30;;;17.53;;
12511;SDS011;6321;53.798;10.382;2023-04-06T05:30:00;29.83;;;18.30;;
12511;SDS011;6321;53.798;10.382;2023-04-06T05:32:27;29.60;;;18.57;;
12511;SDS011;6321;53.798;10.382;2023-04-06T05:34:53;28.57;;;19.93;;
12511;SDS011;6321;53.798;10.382;2023-04-06T05:37:18;36.70;;;20.33;;
12511;SDS011;6321;53.798;10.382;2023-04-06T05:39:45;36.83;;;22.03;;
12511;SDS011;6321;53.798;10.382;2023-04-06T05:42:11;41.33;;;22.53;;
12511;SDS011;6321;53.798;10.382;2023-04-06T05:44:37;43.90;;;24.33;;
12511;SDS011;6321;53.798;10.382;2023-04-06T05:47:03;50.10;;;25.50;;
12511;SDS011;6321;53.798;10.382;2023-04-06T05:49:29;48.10;;;25.73;;
12511;SDS011;6321;53.798;10.382;2023-04-06T05:51:55;48.20;;;28.30;;
12511;SDS011;6321;53.798;10.382;2023-04-06T05:54:21;53.30;;;28.83;;
12511;SDS011;6321;53.798;10.382;2023-04-06T05:56:47;63.80;;;31.27;;
12511;SDS011;6321;53.798;10.382;2023-04-06T05:59:13;54.30;;;28.80;;
12511;SDS011;6321;53.798;10.382;2023-04-06T06:01:39;65.17;;;31.70;;
12511;SDS011;6321;53.798;10.382;2023-04-06T06:04:05;77.77;;;35.67;;
12511;SDS011;6321;53.798;10.382;2023-04-06T06:06:31;79.47;;;34.60;;
12511;SDS011;6321;53.798;10.382;2023-04-06T06:08:57;76.20;;;35.20;;
12511;SDS011;6321;53.798;10.382;2023-04-06T06:11:26;84.87;;;37.87;;
12511;SDS011;6321;53.798;10.382;2023-04-06T06:13:52;76.57;;;36.50;;
12511;SDS011;6321;53.798;10.382;2023-04-06T06:16:18;74.50;;;34.73;;
12511;SDS011;6321;53.798;10.382;2023-04-06T06:18:44;86.27;;;38.20;;
12511;SDS011;6321;53.798;10.382;2023-04-06T06:21:10;84.07;;;40.37;;
12511;SDS011;6321;53.798;10.382;2023-04-06T06:23:37;99.57;;;40.83;;
12511;SDS011;6321;53.798;10.382;2023-04-06T06:26:03;89.03;;;42.37;;
12511;SDS011;6321;53.798;10.382;2023-04-06T06:28:29;88.87;;;41.07;;
12511;SDS011;6321;53.798;10.382;2023-04-06T06:30:55;87.10;;;40.47;;
12511;SDS011;6321;53.798;10.382;2023-04-06T06:33:21;77.00;;;37.90;;
12511;SDS011;6321;53.798;10.382;2023-04-06T06:35:47;76.73;;;39.63;;
12511;SDS011;6321;53.798;10.382;2023-04-06T06:38:13;67.93;;;34.27;;
12511;SDS011;6321;53.798;10.382;2023-04-06T06:40:40;59.17;;;32.97;;
12511;SDS011;6321;53.798;10.382;2023-04-06T06:43:06;55.33;;;30.20;;
12511;SDS011;6321;53.798;10.382;2023-04-06T06:45:32;49.03;;;28.60;;
12511;SDS011;6321;53.798;10.382;2023-04-06T06:47:58;39.67;;;25.93;;
12511;SDS011;6321;53.798;10.382;2023-04-06T06:50:24;37.87;;;24.60;;
12511;SDS011;6321;53.798;10.382;2023-04-06T06:52:50;38.53;;;26.07;;
12511;SDS011;6321;53.798;10.382;2023-04-06T06:55:16;28.00;;;18.73;;
12511;SDS011;6321;53.798;10.382;2023-04-06T06:57:44;27.53;;;17.50;;
12511;SDS011;6321;53.798;10.382;2023-04-06T07:00:11;22.23;;;14.83;;
12511;SDS011;6321;53.798;10.382;2023-04-06T07:02:38;19.10;;;14.63;;
12511;SDS011;6321;53.798;10.382;2023-04-06T07:05:04;17.83;;;13.63;;
12511;SDS011;6321;53.798;10.382;2023-04-06T07:07:31;20.83;;;14.27;;
12511;SDS011;6321;53.798;10.382;2023-04-06T07:09:58;18.80;;;13.97;;
12511;SDS011;6321;53.798;10.382;2023-04-06T07:12:24;16.57;;;13.27;;
12511;SDS011;6321;53.798;10.382;2023-04-06T07:14:50;17.73;;;13.03;;
12511;SDS011;6321;53.798;10.382;2023-04-06T07:17:16;19.00;;;13.53;;
12511;SDS011;6321;53.798;10.382;2023-04-06T07:19:42;15.80;;;12.30;;
12511;SDS011;6321;53.798;10.382;2023-04-06T07:22:08;14.17;;;12.30;;
12511;SDS011;6321;53.798;10.382;2023-04-06T07:24:34;14.00;;;12.23;;
12511;SDS011;6321;53.798;10.382;2023-04-06T07:27:00;15.63;;;11.67;;
12511;SDS011;6321;53.798;10.382;2023-04-06T07:29:26;13.70;;;10.47;;
12511;SDS011;6321;53.798;10.382;2023-04-06T07:31:53;14.37;;;10.93;;
12511;SDS011;6321;53.798;10.382;2023-04-06T07:34:19;13.53;;;10.73;;
12511;SDS011;6321;53.798;10.382;2023-04-06T07:36:45;14.07;;;11.20;;
12511;SDS011;6321;53.798;10.382;2023-04-06T07:39:11;14.83;;;10.67;;
12511;SDS011;6321;53.798;10.382;2023-04-06T07:41:37;12.13;;;10.03;;
12511;SDS011;6321;53.798;10.382;2023-04-06T07:44:03;13.57;;;10.37;;
12511;SDS011;6321;53.798;10.382;2023-04-06T07:46:29;12.13;;;9.57;;
12511;SDS011;6321;53.798;10.382;2023-04-06T07:48:56;14.03;;;10.60;;
12511;SDS011;6321;53.798;10.382;2023-04-06T07:51:22;15.03;;;9.80;;
12511;SDS011;6321;53.798;10.382;2023-04-06T07:53:48;11.10;;;9.43;;
12511;SDS011;6321;53.798;10.382;2023-04-06T07:56:14;14.37;;;10.43;;
12511;SDS011;6321;53.798;10.382;2023-04-06T07:58:40;13.87;;;10.30;;
12511;SDS011;6321;53.798;10.382;2023-04-06T08:01:06;10.53;;;9.43;;
12511;SDS011;6321;53.798;10.382;2023-04-06T08:03:35;10.93;;;8.83;;
12511;SDS011;6321;53.798;10.382;2023-04-06T08:06:01;11.67;;;8.90;;
12511;SDS011;6321;53.798;10.382;2023-04-06T08:08:28;11.53;;;9.27;;
12511;SDS011;6321;53.798;10.382;2023-04-06T08:10:54;9.93;;;8.23;;
12511;SDS011;6321;53.798;10.382;2023-04-06T08:13:20;11.33;;;8.00;;
12511;SDS011;6321;53.798;10.382;2023-04-06T08:15:46;10.40;;;8.40;;
12511;SDS011;6321;53.798;10.382;2023-04-06T08:18:12;9.63;;;8.10;;
12511;SDS011;6321;53.798;10.382;2023-04-06T08:20:38;8.07;;;6.90;;
12511;SDS011;6321;53.798;10.382;2023-04-06T08:23:05;8.83;;;6.87;;
12511;SDS011;6321;53.798;10.382;2023-04-06T08:25:31;9.63;;;7.87;;
12511;SDS011;6321;53.798;10.382;2023-04-06T08:27:57;8.13;;;7.20;;
12511;SDS011;6321;53.798;10.382;2023-04-06T08:30:23;8.07;;;6.20;;
12511;SDS011;6321;53.798;10.382;2023-04-06T08:32:49;7.77;;;6.10;;
12511;SDS011;6321;53.798;10.382;2023-04-06T08:35:15;6.43;;;5.00;;
12511;SDS011;6321;53.798;10.382;2023-04-06T08:37:41;9.43;;;6.50;;
12511;SDS011;6321;53.798;10.382;2023-04-06T08:40:07;9.23;;;5.87;;
12511;SDS011;6321;53.798;10.382;2023-04-06T08:42:33;8.97;;;5.63;;
12511;SDS011;6321;53.798;10.382;2023-04-06T08:45:05;8.70;;;5.40;;
12511;SDS011;6321;53.798;10.382;2023-04-06T08:47:31;8.57;;;5.27;;
12511;SDS011;6321;53.798;10.382;2023-04-06T08:49:57;6.03;;;5.03;;
12511;SDS011;6321;53.798;10.382;2023-04-06T08:52:24;6.50;;;5.20;;
12511;SDS011;6321;53.798;10.382;2023-04-06T08:54:50;5.93;;;4.97;;
12511;SDS011;6321;53.798;10.382;2023-04-06T08:57:16;5.17;;;4.67;;
12511;SDS011;6321;53.798;10.382;2023-04-06T08:59:43;8.93;;;5.33;;
12511;SDS011;6321;53.798;10.382;2023-04-06T09:02:11;8.33;;;5.37;;
12511;SDS011;6321;53.798;10.382;2023-04-06T09:04:38;5.47;;;4.93;;
12511;SDS011;6321;53.798;10.382;2023-04-06T09:07:04;5.80;;;4.80;;
12511;SDS011;6321;53.798;10.382;2023-04-06T09:09:30;7.80;;;5.27;;
12511;SDS011;6321;53.798;10.382;2023-04-06T09:11:56;7.03;;;4.83;;
12511;SDS011;6321;53.798;10.382;2023-04-06T09:14:34;8.87;;;6.97;;
12511;SDS011;6321;53.798;10.382;2023-04-06T09:17:01;8.77;;;6.27;;
12511;SDS011;6321;53.798;10.382;2023-04-06T09:19:27;6.53;;;4.50;;
12511;SDS011;6321;53.798;10.382;2023-04-06T09:22:05;7.23;;;4.40;;
12511;SDS011;6321;53.798;10.382;2023-04-06T09:25:05;6.47;;;4.17;;
12511;SDS011;6321;53.798;10.382;2023-04-06T09:27:34;7.13;;;4.73;;
12511;SDS011;6321;53.798;10.382;2023-04-06T09:32:32;5.33;;;4.23;;
12511;SDS011;6321;53.798;10.382;2023-04-06T09:35:05;4.73;;;3.70;;
12511;SDS011;6321;53.798;10.382;2023-04-06T09:37:31;4.53;;;3.83;;
12511;SDS011;6321;53.798;10.382;2023-04-06T09:40:04;5.37;;;3.73;;
12511;SDS011;6321;53.798;10.382;2023-04-06T09:42:30;4.50;;;3.60;;
12511;SDS011;6321;53.798;10.382;2023-04-06T09:44:56;7.20;;;4.17;;
12511;SDS011;6321;53.798;10.382;2023-04-06T09:47:22;3.70;;;3.30;;
12511;SDS011;6321;53.798;10.382;2023-04-06T09:49:51;4.67;;;3.53;;
12511;SDS011;6321;53.798;10.382;2023-04-06T09:52:19;5.60;;;3.90;;
12511;SDS011;6321;53.798;10.382;2023-04-06T09:54:46;4.70;;;3.90;;
12511;SDS011;6321;53.798;10.382;2023-04-06T09:57:25;5.20;;;3.37;;
12511;SDS011;6321;53.798;10.382;2023-04-06T10:00:15;5.57;;;3.50;;
12511;SDS011;6321;53.798;10.382;2023-04-06T10:02:56;4.33;;;3.60;;
12511;SDS011;6321;53.798;10.382;2023-04-06T10:05:27;6.67;;;3.70;;
12511;SDS011;6321;53.798;10.382;2023-04-06T10:07:57;4.93;;;3.83;;
12511;SDS011;6321;53.798;10.382;2023-04-06T10:10:23;4.17;;;3.33;;
12511;SDS011;6321;53.798;10.382;2023-04-06T10:12:49;5.37;;;4.20;;
12511;SDS011;6321;53.798;10.382;2023-04-06T10:15:15;5.37;;;4.03;;
12511;SDS011;6321;53.798;10.382;2023-04-06T10:17:42;4.80;;;3.67;;
12511;SDS011;6321;53.798;10.382;2023-04-06T10:20:13;4.40;;;3.50;;
12511;SDS011;6321;53.798;10.382;2023-04-06T10:22:44;6.67;;;3.80;;
12511;SDS011;6321;53.798;10.382;2023-04-06T10:25:15;4.50;;;3.67;;
12511;SDS011;6321;53.798;10.382;2023-04-06T10:27:41;5.10;;;3.47;;
12511;SDS011;6321;53.798;10.382;2023-04-06T10:30:07;5.13;;;3.40;;
12511;SDS011;6321;53.798;10.382;2023-04-06T10:32:34;6.97;;;3.83;;
12511;SDS011;6321;53.798;10.382;2023-04-06T10:35:07;7.83;;;3.73;;
12511;SDS011;6321;53.798;10.382;2023-04-06T10:40:22;6.50;;;4.17;;
12511;SDS011;6321;53.798;10.382;2023-04-06T10:42:49;6.10;;;4.00;;
12511;SDS011;6321;53.798;10.382;2023-04-06T10:45:22;4.53;;;3.50;;
12511;SDS011;6321;53.798;10.382;2023-04-06T10:47:48;5.17;;;3.90;;
12511;SDS011;6321;53.798;10.382;2023-04-06T10:50:14;5.00;;;4.50;;
12511;SDS011;6321;53.798;10.382;2023-04-06T10:52:44;4.70;;;3.73;;
12511;SDS011;6321;53.798;10.382;2023-04-06T10:55:10;7.30;;;4.77;;
12511;SDS011;6321;53.798;10.382;2023-04-06T10:57:37;6.40;;;4.77;;
12511;SDS011;6321;53.798;10.382;2023-04-06T11:00:04;8.53;;;5.00;;
12511;SDS011;6321;53.798;10.382;2023-04-06T11:02:30;7.10;;;4.50;;
12511;SDS011;6321;53.798;10.382;2023-04-06T11:04:57;6.90;;;5.00;;
12511;SDS011;6321;53.798;10.382;2023-04-06T11:07:26;5.90;;;5.30;;
12511;SDS011;6321;53.798;10.382;2023-04-06T11:09:55;5.60;;;5.10;;
12511;SDS011;6321;53.798;10.382;2023-04-06T11:12:24;5.70;;;5.10;;
12511;SDS011;6321;53.798;10.382;2023-04-06T11:17:27;9.07;;;6.83;;
12511;SDS011;6321;53.798;10.382;2023-04-06T11:19:53;7.83;;;5.90;;
12511;SDS011;6321;53.798;10.382;2023-04-06T11:22:19;9.10;;;6.00;;
12511;SDS011;6321;53.798;10.382;2023-04-06T11:24:45;6.00;;;5.27;;
12511;SDS011;6321;53.798;10.382;2023-04-06T11:27:11;8.00;;;5.97;;
12511;SDS011;6321;53.798;10.382;2023-04-06T11:29:37;10.70;;;6.27;;
12511;SDS011;6321;53.798;10.382;2023-04-06T11:32:04;7.13;;;5.70;;
12511;SDS011;6321;53.798;10.382;2023-04-06T11:34:32;6.17;;;5.50;;
12511;SDS011;6321;53.798;10.382;2023-04-06T11:37:02;6.87;;;5.70;;
12511;SDS011;6321;53.798;10.382;2023-04-06T11:39:30;8.10;;;6.23;;
12511;SDS011;6321;53.798;10.382;2023-04-06T11:42:01;7.60;;;5.87;;
12511;SDS011;6321;53.798;10.382;2023-04-06T11:47:03;9.17;;;6.03;;
12511;SDS011;6321;53.798;10.382;2023-04-06T11:49:29;6.53;;;5.83;;
12511;SDS011;6321;53.798;10.382;2023-04-06T11:51:56;8.90;;;6.80;;
12511;SDS011;6321;53.798;10.382;2023-04-06T11:54:44;7.87;;;6.77;;
12511;SDS011;6321;53.798;10.382;2023-04-06T11:57:08;8.43;;;6.70;;
12511;SDS011;6321;53.798;10.382;2023-04-06T11:59:35;7.53;;;6.43;;
12511;SDS011;6321;53.798;10.382;2023-04-06T12:02:01;8.00;;;6.13;;
12511;SDS011;6321;53.798;10.382;2023-04-06T12:04:27;7.73;;;6.90;;
12511;SDS011;6321;53.798;10.382;2023-04-06T12:06:54;7.77;;;6.83;;
12511;SDS011;6321;53.798;10.382;2023-04-06T12:09:20;8.37;;;7.00;;
12511;SDS011;6321;53.798;10.382;2023-04-06T12:11:46;8.20;;;6.77;;
12511;SDS011;6321;53.798;10.382;2023-04-06T12:14:12;8.67;;;7.47;;
12511;SDS011;6321;53.798;10.382;2023-04-06T12:16:38;7.80;;;6.43;;
12511;SDS011;6321;53.798;10.382;2023-04-06T12:19:04;8.20;;;7.40;;
12511;SDS011;6321;53.798;10.382;2023-04-06T12:21:30;7.53;;;6.70;;
12511;SDS011;6321;53.798;10.382;2023-04-06T12:23:57;7.53;;;6.47;;
12511;SDS011;6321;53.798;10.382;2023-04-06T12:26:23;7.50;;;6.70;;
12511;SDS011;6321;53.798;10.382;2023-04-06T12:28:49;10.43;;;7.53;;
12511;SDS011;6321;53.798;10.382;2023-04-06T12:31:16;8.53;;;7.03;;
12511;SDS011;6321;53.798;10.382;2023-04-06T12:33:42;9.37;;;7.37;;
12511;SDS011;6321;53.798;10.382;2023-04-06T12:36:12;11.07;;;7.30;;
12511;SDS011;6321;53.798;10.382;2023-04-06T12:38:39;8.53;;;7.27;;
12511;SDS011;6321;53.798;10.382;2023-04-06T12:41:05;7.93;;;7.07;;
12511;SDS011;6321;53.798;10.382;2023-04-06T12:43:31;7.70;;;7.03;;
12511;SDS011;6321;53.798;10.382;2023-04-06T12:45:57;9.50;;;7.90;;
12511;SDS011;6321;53.798;10.382;2023-04-06T12:48:24;9.70;;;8.17;;
12511;SDS011;6321;53.798;10.382;2023-04-06T12:50:59;10.03;;;7.90;;
12511;SDS011;6321;53.798;10.382;2023-04-06T12:53:25;11.57;;;8.37;;
12511;SDS011;6321;53.798;10.382;2023-04-06T12:55:52;10.50;;;8.43;;
12511;SDS011;6321;53.798;10.382;2023-04-06T12:58:18;9.87;;;8.23;;
12511;SDS011;6321;53.798;10.382;2023-04-06T13:00:44;9.37;;;8.23;;
12511;SDS011;6321;53.798;10.382;2023-04-06T13:03:10;8.93;;;7.63;;
12511;SDS011;6321;53.798;10.382;2023-04-06T13:05:43;8.47;;;7.33;;
12511;SDS011;6321;53.798;10.382;2023-04-06T13:08:09;9.77;;;8.00;;
12511;SDS011;6321;53.798;10.382;2023-04-06T13:10:35;9.57;;;8.20;;
12511;SDS011;6321;53.798;10.382;2023-04-06T13:13:01;9.50;;;8.60;;
12511;SDS011;6321;53.798;10.382;2023-04-06T13:15:27;9.17;;;8.27;;
12511;SDS011;6321;53.798;10.382;2023-04-06T13:17:53;9.67;;;8.30;;
12511;SDS011;6321;53.798;10.382;2023-04-06T13:20:19;8.83;;;7.97;;
12511;SDS011;6321;53.798;10.382;2023-04-06T13:22:45;10.37;;;8.03;;
12511;SDS011;6321;53.798;10.382;2023-04-06T13:25:11;8.53;;;7.70;;
12511;SDS011;6321;53.798;10.382;2023-04-06T13:27:37;8.80;;;7.90;;
12511;SDS011;6321;53.798;10.382;2023-04-06T13:30:03;8.97;;;7.63;;
12511;SDS011;6321;53.798;10.382;2023-04-06T13:32:29;10.30;;;8.30;;
12511;SDS011;6321;53.798;10.382;2023-04-06T13:34:56;9.47;;;7.27;;
12511;SDS011;6321;53.798;10.382;2023-04-06T13:37:22;9.20;;;8.30;;
12511;SDS011;6321;53.798;10.382;2023-04-06T13:39:48;8.77;;;7.87;;
12511;SDS011;6321;53.798;10.382;2023-04-06T13:42:15;9.60;;;8.60;;
12511;SDS011;6321;53.798;10.382;2023-04-06T13:44:40;8.43;;;7.63;;
12511;SDS011;6321;53.798;10.382;2023-04-06T13:47:06;9.43;;;7.93;;
12511;SDS011;6321;53.798;10.382;2023-04-06T13:49:32;9.60;;;8.40;;
12511;SDS011;6321;53.798;10.382;2023-04-06T13:51:58;8.70;;;7.80;;
12511;SDS011;6321;53.798;10.382;2023-04-06T13:54:25;9.30;;;8.37;;
12511;SDS011;6321;53.798;10.382;2023-04-06T13:56:52;8.73;;;7.83;;
12511;SDS011;6321;53.798;10.382;2023-04-06T13:59:18;9.07;;;7.33;;
12511;SDS011;6321;53.798;10.382;2023-04-06T14:01:44;8.87;;;7.90;;
12511;SDS011;6321;53.798;10.382;2023-04-06T14:04:10;9.13;;;7.80;;
12511;SDS011;6321;53.798;10.382;2023-04-06T14:06:36;7.93;;;7.07;;
12511;SDS011;6321;53.798;10.382;2023-04-06T14:09:02;10.27;;;7.83;;
12511;SDS011;6321;53.798;10.382;2023-04-06T14:11:28;9.03;;;8.10;;
12511;SDS011;6321;53.798;10.382;2023-04-06T14:13:55;11.60;;;8.43;;
12511;SDS011;6321;53.798;10.382;2023-04-06T14:16:22;9.00;;;8.07;;
12511;SDS011;6321;53.798;10.382;2023-04-06T14:18:48;10.50;;;7.93;;
12511;SDS011;6321;53.798;10.382;2023-04-06T14:21:15;10.60;;;8.33;;
12511;SDS011;6321;53.798;10.382;2023-04-06T14:23:41;8.33;;;7.53;;
12511;SDS011;6321;53.798;10.382;2023-04-06T14:26:07;9.53;;;8.50;;
12511;SDS011;6321;53.798;10.382;2023-04-06T14:28:34;10.00;;;8.40;;
12511;SDS011;6321;53.798;10.382;2023-04-06T14:31:01;9.50;;;8.60;;
12511;SDS011;6321;53.798;10.382;2023-04-06T14:33:29;9.17;;;8.23;;
12511;SDS011;6321;53.798;10.382;2023-04-06T14:35:55;10.27;;;9.10;;
12511;SDS011;6321;53.798;10.382;2023-04-06T14:38:21;10.10;;;8.00;;
12511;SDS011;6321;53.798;10.382;2023-04-06T14:40:48;9.77;;;7.97;;
12511;SDS011;6321;53.798;10.382;2023-04-06T14:43:14;10.77;;;7.63;;